Fairbank, Illinois
Current Conditions -  °F | °C
As of 11:52 PM on Monday 26 Jan 2015 (Local Time) from KMLI Reporting Station
Haze Haze  
Wind Chill: 27°   Ceiling: 3000
Heat Index: 32°   Visibility: 5mi
Dew Point: 30°   Wind: 5mph
Humidity: 92%   Direction: 240°WSW
Pressure: 29.91"   Gusts: NA
Location:  41.4828°N, 90.1801°W
Report Text: KMLI 270552Z AUTO 24004KT 5SM BR BKN030 OVC037 00/M01 A2991 RMK AO2 SLP136 T00001011 10006 21006 400061111 53013
Loading
Personal Weather Stations






























Interactive Weather Map New forecast layout! Learn more

10-Day Weather Forecast

Advertisements
Track Severe Weather on mobile